sensor_id;sensor_type;location;lat;lon;timestamp;pressure;altitude;pressure_sealevel;temperature;humidity
53011;BME280;42803;55.762;38.084;2022-12-24T00:01:01;98613.22;;;0.82;100.00
53011;BME280;42803;55.762;38.084;2022-12-24T00:03:47;98625.28;;;0.83;100.00
53011;BME280;42803;55.762;38.084;2022-12-24T00:06:34;98620.91;;;0.82;100.00
53011;BME280;42803;55.762;38.084;2022-12-24T00:09:20;98615.78;;;0.82;100.00
53011;BME280;42803;55.762;38.084;2022-12-24T00:12:08;98618.22;;;0.81;100.00
53011;BME280;42803;55.762;38.084;2022-12-24T00:14:55;98616.53;;;0.81;100.00
53011;BME280;42803;55.762;38.084;2022-12-24T00:17:41;98622.44;;;0.80;100.00
53011;BME280;42803;55.762;38.084;2022-12-24T00:20:27;98627.41;;;0.79;100.00
53011;BME280;42803;55.762;38.084;2022-12-24T00:23:14;98619.69;;;0.79;100.00
53011;BME280;42803;55.762;38.084;2022-12-24T00:26:01;98620.47;;;0.78;100.00
53011;BME280;42803;55.762;38.084;2022-12-24T00:28:49;98631.78;;;0.80;100.00
53011;BME280;42803;55.762;38.084;2022-12-24T00:31:35;98635.88;;;0.78;100.00
53011;BME280;42803;55.762;38.084;2022-12-24T00:34:22;98640.69;;;0.75;100.00
53011;BME280;42803;55.762;38.084;2022-12-24T00:37:08;98641.78;;;0.77;100.00
53011;BME280;42803;55.762;38.084;2022-12-24T00:39:54;98647.63;;;0.67;100.00
53011;BME280;42803;55.762;38.084;2022-12-24T00:42:40;98640.69;;;0.66;100.00
53011;BME280;42803;55.762;38.084;2022-12-24T00:45:28;98648.53;;;0.67;100.00
53011;BME280;42803;55.762;38.084;2022-12-24T00:48:14;98637.94;;;0.64;100.00
53011;BME280;42803;55.762;38.084;2022-12-24T00:51:01;98631.00;;;0.63;100.00
53011;BME280;42803;55.762;38.084;2022-12-24T00:53:47;98627.41;;;0.61;100.00
53011;BME280;42803;55.762;38.084;2022-12-24T00:56:34;98626.44;;;0.61;100.00
53011;BME280;42803;55.762;38.084;2022-12-24T00:59:21;98631.44;;;0.59;100.00
53011;BME280;42803;55.762;38.084;2022-12-24T01:02:09;98632.22;;;0.58;100.00
53011;BME280;42803;55.762;38.084;2022-12-24T01:04:55;98625.84;;;0.55;100.00
53011;BME280;42803;55.762;38.084;2022-12-24T01:07:43;98630.22;;;0.56;100.00
53011;BME280;42803;55.762;38.084;2022-12-24T01:10:29;98628.56;;;0.56;100.00
53011;BME280;42803;55.762;38.084;2022-12-24T01:13:16;98631.91;;;0.55;100.00
53011;BME280;42803;55.762;38.084;2022-12-24T01:16:11;98635.38;;;0.56;100.00
53011;BME280;42803;55.762;38.084;2022-12-24T01:18:59;98637.16;;;0.57;100.00
53011;BME280;42803;55.762;38.084;2022-12-24T01:21:46;98643.97;;;0.56;100.00
53011;BME280;42803;55.762;38.084;2022-12-24T01:24:32;98647.63;;;0.58;100.00
53011;BME280;42803;55.762;38.084;2022-12-24T01:27:19;98644.16;;;0.58;100.00
53011;BME280;42803;55.762;38.084;2022-12-24T01:30:07;98648.34;;;0.57;100.00
53011;BME280;42803;55.762;38.084;2022-12-24T01:32:54;98649.41;;;0.59;100.00
53011;BME280;42803;55.762;38.084;2022-12-24T01:35:42;98653.78;;;0.60;100.00
53011;BME280;42803;55.762;38.084;2022-12-24T01:38:29;98652.31;;;0.62;100.00
53011;BME280;42803;55.762;38.084;2022-12-24T01:41:17;98649.75;;;0.62;100.00
53011;BME280;42803;55.762;38.084;2022-12-24T01:44:19;98651.22;;;0.60;100.00
53011;BME280;42803;55.762;38.084;2022-12-24T01:47:08;98652.13;;;0.61;100.00
53011;BME280;42803;55.762;38.084;2022-12-24T01:49:59;98647.00;;;0.61;100.00
53011;BME280;42803;55.762;38.084;2022-12-24T01:52:48;98647.00;;;0.61;100.00
53011;BME280;42803;55.762;38.084;2022-12-24T01:55:35;98647.94;;;0.61;100.00
53011;BME280;42803;55.762;38.084;2022-12-24T01:58:23;98647.00;;;0.61;100.00
53011;BME280;42803;55.762;38.084;2022-12-24T02:01:11;98644.59;;;0.62;100.00
53011;BME280;42803;55.762;38.084;2022-12-24T02:03:58;98634.34;;;0.62;100.00
53011;BME280;42803;55.762;38.084;2022-12-24T02:06:44;98647.63;;;0.67;100.00
53011;BME280;42803;55.762;38.084;2022-12-24T02:09:33;98636.13;;;0.63;100.00
53011;BME280;42803;55.762;38.084;2022-12-24T02:12:20;98642.63;;;0.68;100.00
53011;BME280;42803;55.762;38.084;2022-12-24T02:15:10;98651.41;;;0.70;100.00
53011;BME280;42803;55.762;38.084;2022-12-24T02:18:04;98650.34;;;0.68;100.00
53011;BME280;42803;55.762;38.084;2022-12-24T02:21:20;98645.97;;;0.67;100.00
53011;BME280;42803;55.762;38.084;2022-12-24T02:24:28;98655.47;;;0.68;100.00
53011;BME280;42803;55.762;38.084;2022-12-24T02:27:27;98658.22;;;0.70;100.00
53011;BME280;42803;55.762;38.084;2022-12-24T02:30:19;98654.88;;;0.71;100.00
53011;BME280;42803;55.762;38.084;2022-12-24T02:33:15;98657.91;;;0.67;100.00
53011;BME280;42803;55.762;38.084;2022-12-24T02:36:07;98656.56;;;0.70;100.00
53011;BME280;42803;55.762;38.084;2022-12-24T02:39:00;98659.13;;;0.70;100.00
53011;BME280;42803;55.762;38.084;2022-12-24T02:41:50;98664.84;;;0.68;100.00
53011;BME280;42803;55.762;38.084;2022-12-24T02:44:41;98668.75;;;0.64;100.00
53011;BME280;42803;55.762;38.084;2022-12-24T02:47:32;98673.16;;;0.65;100.00
53011;BME280;42803;55.762;38.084;2022-12-24T02:50:19;98673.63;;;0.70;100.00
53011;BME280;42803;55.762;38.084;2022-12-24T02:53:08;98676.03;;;0.68;100.00
53011;BME280;42803;55.762;38.084;2022-12-24T02:59:21;98674.97;;;0.66;100.00
53011;BME280;42803;55.762;38.084;2022-12-24T03:02:23;98675.72;;;0.65;100.00
53011;BME280;42803;55.762;38.084;2022-12-24T03:05:19;98673.31;;;0.67;100.00
53011;BME280;42803;55.762;38.084;2022-12-24T03:08:13;98660.59;;;0.68;100.00
53011;BME280;42803;55.762;38.084;2022-12-24T03:11:03;98667.28;;;0.66;100.00
53011;BME280;42803;55.762;38.084;2022-12-24T03:13:54;98663.63;;;0.64;100.00
53011;BME280;42803;55.762;38.084;2022-12-24T03:16:44;98658.34;;;0.63;100.00
53011;BME280;42803;55.762;38.084;2022-12-24T03:19:31;98659.69;;;0.59;100.00
53011;BME280;42803;55.762;38.084;2022-12-24T03:22:21;98658.94;;;0.60;100.00
53011;BME280;42803;55.762;38.084;2022-12-24T03:25:10;98647.63;;;0.58;100.00
53011;BME280;42803;55.762;38.084;2022-12-24T03:27:56;98655.78;;;0.63;100.00
53011;BME280;42803;55.762;38.084;2022-12-24T03:30:45;98642.47;;;0.58;100.00
53011;BME280;42803;55.762;38.084;2022-12-24T03:33:33;98648.53;;;0.59;100.00
53011;BME280;42803;55.762;38.084;2022-12-24T03:36:19;98641.41;;;0.56;100.00
53011;BME280;42803;55.762;38.084;2022-12-24T03:39:07;98642.31;;;0.57;100.00
53011;BME280;42803;55.762;38.084;2022-12-24T03:41:53;98631.91;;;0.55;100.00
53011;BME280;42803;55.762;38.084;2022-12-24T03:44:40;98641.41;;;0.56;100.00
53011;BME280;42803;55.762;38.084;2022-12-24T03:47:26;98642.31;;;0.57;100.00
53011;BME280;42803;55.762;38.084;2022-12-24T03:50:13;98654.25;;;0.56;100.00
53011;BME280;42803;55.762;38.084;2022-12-24T03:52:59;98661.94;;;0.56;100.00
53011;BME280;42803;55.762;38.084;2022-12-24T03:55:47;98668.16;;;0.58;100.00
53011;BME280;42803;55.762;38.084;2022-12-24T03:58:33;98667.09;;;0.56;100.00
53011;BME280;42803;55.762;38.084;2022-12-24T04:01:19;98668.41;;;0.53;100.00
53011;BME280;42803;55.762;38.084;2022-12-24T04:04:06;98671.31;;;0.56;100.00
53011;BME280;42803;55.762;38.084;2022-12-24T04:06:53;98670.25;;;0.54;100.00
53011;BME280;42803;55.762;38.084;2022-12-24T04:09:39;98669.19;;;0.52;100.00
53011;BME280;42803;55.762;38.084;2022-12-24T04:12:27;98657.25;;;0.52;100.00
53011;BME280;42803;55.762;38.084;2022-12-24T04:15:15;98657.44;;;0.54;100.00
53011;BME280;42803;55.762;38.084;2022-12-24T04:18:01;98669.31;;;0.53;100.00
53011;BME280;42803;55.762;38.084;2022-12-24T04:20:48;98662.25;;;0.51;100.00
53011;BME280;42803;55.762;38.084;2022-12-24T04:23:35;98664.81;;;0.51;100.00
53011;BME280;42803;55.762;38.084;2022-12-24T04:26:22;98657.25;;;0.52;100.00
53011;BME280;42803;55.762;38.084;2022-12-24T04:29:10;98668.41;;;0.53;100.00
53011;BME280;42803;55.762;38.084;2022-12-24T04:31:56;98659.06;;;0.53;100.00
53011;BME280;42803;55.762;38.084;2022-12-24T04:34:43;98668.88;;;0.57;100.00
53011;BME280;42803;55.762;38.084;2022-12-24T04:37:30;98661.19;;;0.57;100.00
53011;BME280;42803;55.762;38.084;2022-12-24T04:40:18;98669.31;;;0.53;100.00
53011;BME280;42803;55.762;38.084;2022-12-24T04:43:05;98663.16;;;0.51;100.00
53011;BME280;42803;55.762;38.084;2022-12-24T04:45:52;98654.69;;;0.52;100.00
53011;BME280;42803;55.762;38.084;2022-12-24T04:48:38;98659.06;;;0.53;100.00
53011;BME280;42803;55.762;38.084;2022-12-24T04:51:26;98653.19;;;0.54;100.00
53011;BME280;42803;55.762;38.084;2022-12-24T04:54:13;98653.19;;;0.54;100.00
53011;BME280;42803;55.762;38.084;2022-12-24T04:56:59;98643.66;;;0.53;100.00
53011;BME280;42803;55.762;38.084;2022-12-24T04:59:46;98638.50;;;0.53;100.00
53011;BME280;42803;55.762;38.084;2022-12-24T05:02:34;98635.22;;;0.54;100.00
53011;BME280;42803;55.762;38.084;2022-12-24T05:05:20;98635.22;;;0.54;100.00
53011;BME280;42803;55.762;38.084;2022-12-24T05:08:07;98640.63;;;0.57;100.00
53011;BME280;42803;55.762;38.084;2022-12-24T05:10:54;98637.94;;;0.56;100.00
53011;BME280;42803;55.762;38.084;2022-12-24T05:13:42;98639.47;;;0.54;100.00
53011;BME280;42803;55.762;38.084;2022-12-24T05:16:28;98640.03;;;0.51;100.00
53011;BME280;42803;55.762;38.084;2022-12-24T05:19:16;98651.22;;;0.52;100.00
53011;BME280;42803;55.762;38.084;2022-12-24T05:22:03;98644.41;;;0.52;100.00
53011;BME280;42803;55.762;38.084;2022-12-24T05:24:49;98651.97;;;0.51;100.00
53011;BME280;42803;55.762;38.084;2022-12-24T05:27:35;98649.22;;;0.49;100.00
53011;BME280;42803;55.762;38.084;2022-12-24T05:30:22;98645.19;;;0.51;100.00
53011;BME280;42803;55.762;38.084;2022-12-24T05:33:08;98643.38;;;0.50;100.00
53011;BME280;42803;55.762;38.084;2022-12-24T05:35:56;98626.88;;;0.48;100.00
53011;BME280;42803;55.762;38.084;2022-12-24T05:38:42;98626.88;;;0.48;100.00
53011;BME280;42803;55.762;38.084;2022-12-24T05:41:29;98627.66;;;0.47;100.00
53011;BME280;42803;55.762;38.084;2022-12-24T05:44:15;98624.00;;;0.45;100.00
53011;BME280;42803;55.762;38.084;2022-12-24T05:47:02;98612.84;;;0.44;100.00
53011;BME280;42803;55.762;38.084;2022-12-24T05:49:48;98616.31;;;0.45;100.00
53011;BME280;42803;55.762;38.084;2022-12-24T05:52:36;98629.13;;;0.45;100.00
53011;BME280;42803;55.762;38.084;2022-12-24T05:55:24;98626.88;;;0.48;100.00
53011;BME280;42803;55.762;38.084;2022-12-24T05:58:11;98631.56;;;0.52;100.00
53011;BME280;42803;55.762;38.084;2022-12-24T06:00:58;98625.84;;;0.55;100.00
53011;BME280;42803;55.762;38.084;2022-12-24T06:03:46;98619.19;;;0.48;100.00
53011;BME280;42803;55.762;38.084;2022-12-24T06:06:32;98622.66;;;0.48;100.00
53011;BME280;42803;55.762;38.084;2022-12-24T06:09:20;98620.84;;;0.47;100.00
53011;BME280;42803;55.762;38.084;2022-12-24T06:12:06;98618.28;;;0.47;100.00
53011;BME280;42803;55.762;38.084;2022-12-24T06:14:52;98616.75;;;0.49;100.00
53011;BME280;42803;55.762;38.084;2022-12-24T06:17:43;98621.00;;;0.49;100.00
53011;BME280;42803;55.762;38.084;2022-12-24T06:20:30;98608.34;;;0.51;100.00
53011;BME280;42803;55.762;38.084;2022-12-24T06:23:17;98622.84;;;0.50;100.00
53011;BME280;42803;55.762;38.084;2022-12-24T06:26:07;98614.38;;;0.51;100.00
53011;BME280;42803;55.762;38.084;2022-12-24T06:28:53;98612.56;;;0.50;100.00
53011;BME280;42803;55.762;38.084;2022-12-24T06:31:40;98619.50;;;0.51;100.00
53011;BME280;42803;55.762;38.084;2022-12-24T06:34:27;98621.16;;;0.51;100.00
53011;BME280;42803;55.762;38.084;2022-12-24T06:37:13;98616.03;;;0.51;100.00
53011;BME280;42803;55.762;38.084;2022-12-24T06:39:59;98617.06;;;0.53;100.00
53011;BME280;42803;55.762;38.084;2022-12-24T06:42:47;98605.91;;;0.52;100.00
53011;BME280;42803;55.762;38.084;2022-12-24T06:45:33;98611.34;;;0.55;100.00
53011;BME280;42803;55.762;38.084;2022-12-24T06:48:20;98610.75;;;0.58;100.00
53011;BME280;42803;55.762;38.084;2022-12-24T06:51:06;98615.28;;;0.60;100.00
53011;BME280;42803;55.762;38.084;2022-12-24T06:53:52;98617.13;;;0.61;100.00
53011;BME280;42803;55.762;38.084;2022-12-24T06:56:39;98621.19;;;0.59;100.00
53011;BME280;42803;55.762;38.084;2022-12-24T06:59:26;98615.28;;;0.60;100.00
53011;BME280;42803;55.762;38.084;2022-12-24T07:02:12;98619.69;;;0.61;100.00
53011;BME280;42803;55.762;38.084;2022-12-24T07:04:59;98615.59;;;0.63;100.00
53011;BME280;42803;55.762;38.084;2022-12-24T07:07:45;98610.00;;;0.67;100.00
53011;BME280;42803;55.762;38.084;2022-12-24T07:10:32;98615.91;;;0.66;100.00
53011;BME280;42803;55.762;38.084;2022-12-24T07:13:21;98617.41;;;0.64;100.00
53011;BME280;42803;55.762;38.084;2022-12-24T07:16:09;98618.94;;;0.62;100.00
53011;BME280;42803;55.762;38.084;2022-12-24T07:18:56;98615.59;;;0.63;100.00
53011;BME280;42803;55.762;38.084;2022-12-24T07:21:42;98607.56;;;0.60;100.00
53011;BME280;42803;55.762;38.084;2022-12-24T07:24:29;98611.22;;;0.62;100.00
53011;BME280;42803;55.762;38.084;2022-12-24T07:27:15;98608.78;;;0.64;100.00
53011;BME280;42803;55.762;38.084;2022-12-24T07:30:02;98612.25;;;0.64;100.00
53011;BME280;42803;55.762;38.084;2022-12-24T07:32:50;98602.91;;;0.65;100.00
53011;BME280;42803;55.762;38.084;2022-12-24T07:35:37;98603.22;;;0.68;100.00
53011;BME280;42803;55.762;38.084;2022-12-24T07:38:23;98595.69;;;0.69;100.00
53011;BME280;42803;55.762;38.084;2022-12-24T07:41:10;98601.09;;;0.72;100.00
53011;BME280;42803;55.762;38.084;2022-12-24T07:44:00;98605.31;;;0.72;100.00
53011;BME280;42803;55.762;38.084;2022-12-24T07:46:48;98600.81;;;0.69;100.00
53011;BME280;42803;55.762;38.084;2022-12-24T07:49:36;98594.47;;;0.83;100.00
53011;BME280;42803;55.762;38.084;2022-12-24T07:52:23;98592.97;;;0.85;100.00
53011;BME280;42803;55.762;38.084;2022-12-24T07:55:09;98597.50;;;0.96;100.00
53011;BME280;42803;55.762;38.084;2022-12-24T07:57:55;98593.13;;;1.13;100.00
53011;BME280;42803;55.762;38.084;2022-12-24T08:00:42;98593.72;;;1.10;100.00
53011;BME280;42803;55.762;38.084;2022-12-24T08:03:28;98592.06;;;1.02;100.00
53011;BME280;42803;55.762;38.084;2022-12-24T08:06:16;98598.72;;;1.00;100.00
53011;BME280;42803;55.762;38.084;2022-12-24T08:09:03;98591.03;;;1.00;100.00
53011;BME280;42803;55.762;38.084;2022-12-24T08:11:49;98598.69;;;0.91;100.00
53011;BME280;42803;55.762;38.084;2022-12-24T08:14:36;98593.28;;;0.88;100.00
53011;BME280;42803;55.762;38.084;2022-12-24T08:17:23;98604.75;;;0.83;100.00
53011;BME280;42803;55.762;38.084;2022-12-24T08:20:09;98605.66;;;0.84;100.00
53011;BME280;42803;55.762;38.084;2022-12-24T08:22:57;98606.72;;;0.86;100.00
53011;BME280;42803;55.762;38.084;2022-12-24T08:25:45;98602.78;;;0.89;100.00
53011;BME280;42803;55.762;38.084;2022-12-24T08:28:33;98608.53;;;0.87;100.00
53011;BME280;42803;55.762;38.084;2022-12-24T08:31:19;98606.72;;;0.86;100.00
53011;BME280;42803;55.762;38.084;2022-12-24T08:34:07;98602.78;;;0.81;100.00
53011;BME280;42803;55.762;38.084;2022-12-24T08:36:54;98607.63;;;0.78;100.00
53011;BME280;42803;55.762;38.084;2022-12-24T08:39:42;98607.00;;;0.71;100.00
53011;BME280;42803;55.762;38.084;2022-12-24T08:42:29;98606.09;;;0.71;100.00
53011;BME280;42803;55.762;38.084;2022-12-24T08:45:18;98601.25;;;0.65;100.00
53011;BME280;42803;55.762;38.084;2022-12-24T08:48:08;98607.56;;;0.60;100.00
53011;BME280;42803;55.762;38.084;2022-12-24T08:50:55;98599.28;;;0.54;100.00
53011;BME280;42803;55.762;38.084;2022-12-24T08:53:41;98596.84;;;0.56;100.00
53011;BME280;42803;55.762;38.084;2022-12-24T08:56:29;98603.50;;;0.54;100.00
53011;BME280;42803;55.762;38.084;2022-12-24T08:59:15;98602.88;;;0.47;100.00
53011;BME280;42803;55.762;38.084;2022-12-24T09:02:01;98607.88;;;0.46;100.00
53011;BME280;42803;55.762;38.084;2022-12-24T09:04:48;98599.84;;;0.43;100.00
53011;BME280;42803;55.762;38.084;2022-12-24T09:07:35;98597.72;;;0.39;100.00
53011;BME280;42803;55.762;38.084;2022-12-24T09:10:22;98590.28;;;0.24;100.00
53011;BME280;42803;55.762;38.084;2022-12-24T09:13:10;98589.47;;;0.08;100.00
53011;BME280;42803;55.762;38.084;2022-12-24T09:15:56;98588.19;;;-0.04;100.00
53011;BME280;42803;55.762;38.084;2022-12-24T09:18:43;98591.97;;;-0.09;100.00
53011;BME280;42803;55.762;38.084;2022-12-24T09:21:29;98581.56;;;-0.11;100.00
53011;BME280;42803;55.762;38.084;2022-12-24T09:24:16;98589.53;;;-0.08;100.00
53011;BME280;42803;55.762;38.084;2022-12-24T09:27:02;98582.06;;;0.03;100.00
53011;BME280;42803;55.762;38.084;2022-12-24T09:29:50;98584.72;;;-0.05;100.00
53011;BME280;42803;55.762;38.084;2022-12-24T09:32:37;98576.09;;;-0.14;100.00
53011;BME280;42803;55.762;38.084;2022-12-24T09:35:23;98575.81;;;-0.08;100.00
53011;BME280;42803;55.762;38.084;2022-12-24T09:38:09;98573.69;;;-0.12;100.00
53011;BME280;42803;55.762;38.084;2022-12-24T09:40:57;98572.19;;;-0.10;100.00
53011;BME280;42803;55.762;38.084;2022-12-24T09:43:46;98575.69;;;-0.01;100.00
53011;BME280;42803;55.762;38.084;2022-12-24T09:46:39;98568.63;;;0.05;100.00
53011;BME280;42803;55.762;38.084;2022-12-24T09:49:39;98564.75;;;0.17;100.00
53011;BME280;42803;55.762;38.084;2022-12-24T09:52:34;98552.69;;;0.16;100.00
53011;BME280;42803;55.762;38.084;2022-12-24T09:55:25;98555.72;;;0.21;100.00
53011;BME280;42803;55.762;38.084;2022-12-24T09:58:18;98561.63;;;0.29;100.00
53011;BME280;42803;55.762;38.084;2022-12-24T10:01:10;98561.94;;;0.32;100.00
53011;BME280;42803;55.762;38.084;2022-12-24T10:04:01;98558.28;;;0.30;100.00
53011;BME280;42803;55.762;38.084;2022-12-24T10:06:54;98561.94;;;0.32;100.00
53011;BME280;42803;55.762;38.084;2022-12-24T10:09:48;98557.09;;;0.35;100.00
53011;BME280;42803;55.762;38.084;2022-12-24T10:12:44;98555.91;;;0.40;100.00
53011;BME280;42803;55.762;38.084;2022-12-24T10:15:39;98558.03;;;0.44;100.00
53011;BME280;42803;55.762;38.084;2022-12-24T10:18:32;98556.66;;;0.47;100.00
53011;BME280;42803;55.762;38.084;2022-12-24T10:21:27;98560.44;;;0.51;100.00
53011;BME280;42803;55.762;38.084;2022-12-24T10:24:21;98558.19;;;0.54;100.00
53011;BME280;42803;55.762;38.084;2022-12-24T10:27:18;98557.13;;;0.52;100.00
53011;BME280;42803;55.762;38.084;2022-12-24T10:30:13;98555.91;;;0.57;100.00
53011;BME280;42803;55.762;38.084;2022-12-24T10:33:01;98556.97;;;0.59;100.00
53011;BME280;42803;55.762;38.084;2022-12-24T10:35:52;98554.72;;;0.62;100.00
53011;BME280;42803;55.762;38.084;2022-12-24T10:38:41;98552.47;;;0.65;100.00
53011;BME280;42803;55.762;38.084;2022-12-24T10:41:29;98557.59;;;0.65;100.00
53011;BME280;42803;55.762;38.084;2022-12-24T10:44:19;98556.09;;;0.67;100.00
53011;BME280;42803;55.762;38.084;2022-12-24T10:47:08;98555.19;;;0.67;100.00
53011;BME280;42803;55.762;38.084;2022-12-24T10:50:00;98560.31;;;0.67;100.00
53011;BME280;42803;55.762;38.084;2022-12-24T10:52:50;98559.25;;;0.65;100.00
53011;BME280;42803;55.762;38.084;2022-12-24T10:55:42;98555.50;;;0.61;100.00
53011;BME280;42803;55.762;38.084;2022-12-24T10:58:29;98562.13;;;0.68;100.00
53011;BME280;42803;55.762;38.084;2022-12-24T11:01:16;98568.47;;;0.71;100.00
53011;BME280;42803;55.762;38.084;2022-12-24T11:04:03;98563.97;;;0.69;100.00
53011;BME280;42803;55.762;38.084;2022-12-24T11:06:55;98567.88;;;0.65;100.00
53011;BME280;42803;55.762;38.084;2022-12-24T11:09:53;98562.13;;;0.68;100.00
53011;BME280;42803;55.762;38.084;2022-12-24T11:12:46;98570.59;;;0.67;100.00
53011;BME280;42803;55.762;38.084;2022-12-24T11:16:05;98572.41;;;0.68;100.00
53011;BME280;42803;55.762;38.084;2022-12-24T11:18:58;98568.91;;;0.67;100.00
53011;BME280;42803;55.762;38.084;2022-12-24T11:21:44;98572.09;;;0.65;100.00
53011;BME280;42803;55.762;38.084;2022-12-24T11:24:32;98567.88;;;0.65;100.00
53011;BME280;42803;55.762;38.084;2022-12-24T11:27:31;98574.50;;;0.63;100.00
53011;BME280;42803;55.762;38.084;2022-12-24T11:30:30;98575.72;;;0.67;100.00
53011;BME280;42803;55.762;38.084;2022-12-24T11:33:18;98574.81;;;0.66;100.00
53011;BME280;42803;55.762;38.084;2022-12-24T11:36:11;98573.03;;;0.65;100.00
53011;BME280;42803;55.762;38.084;2022-12-24T11:38:58;98576.50;;;0.66;100.00
53011;BME280;42803;55.762;38.084;2022-12-24T11:41:45;98571.19;;;0.64;100.00
53011;BME280;42803;55.762;38.084;2022-12-24T11:44:32;98580.56;;;0.64;100.00
53011;BME280;42803;55.762;38.084;2022-12-24T11:47:31;98582.97;;;0.62;100.00
53011;BME280;42803;55.762;38.084;2022-12-24T11:50:27;98575.28;;;0.62;100.00
53011;BME280;42803;55.762;38.084;2022-12-24T11:53:19;98582.97;;;0.62;100.00
53011;BME280;42803;55.762;38.084;2022-12-24T11:56:16;98586.75;;;0.66;100.00
53011;BME280;42803;55.762;38.084;2022-12-24T11:59:15;98593.38;;;0.64;100.00
53011;BME280;42803;55.762;38.084;2022-12-24T12:02:14;98601.25;;;0.65;100.00
53011;BME280;42803;55.762;38.084;2022-12-24T12:05:09;98597.16;;;0.67;100.00
53011;BME280;42803;55.762;38.084;2022-12-24T12:08:04;98603.84;;;0.65;100.00
53011;BME280;42803;55.762;38.084;2022-12-24T12:10:54;98617.72;;;0.67;100.00
53011;BME280;42803;55.762;38.084;2022-12-24T12:13:44;98615.16;;;0.67;100.00
53011;BME280;42803;55.762;38.084;2022-12-24T12:16:42;98617.72;;;0.67;100.00
53011;BME280;42803;55.762;38.084;2022-12-24T12:19:35;98628.88;;;0.68;100.00
53011;BME280;42803;55.762;38.084;2022-12-24T12:22:30;98621.03;;;0.66;100.00
53011;BME280;42803;55.762;38.084;2022-12-24T12:25:22;98628.75;;;0.66;100.00
53011;BME280;42803;55.762;38.084;2022-12-24T12:28:18;98627.53;;;0.63;100.00
53011;BME280;42803;55.762;38.084;2022-12-24T12:31:11;98636.13;;;0.63;100.00
53011;BME280;42803;55.762;38.084;2022-12-24T12:34:03;98623.75;;;0.59;100.00
53011;BME280;42803;55.762;38.084;2022-12-24T12:36:53;98627.53;;;0.54;100.00
53011;BME280;42803;55.762;38.084;2022-12-24T12:39:43;98632.78;;;0.56;100.00
53011;BME280;42803;55.762;38.084;2022-12-24T12:42:31;98631.91;;;0.55;100.00
53011;BME280;42803;55.762;38.084;2022-12-24T12:45:33;98642.75;;;0.53;100.00
53011;BME280;42803;55.762;38.084;2022-12-24T12:48:32;98646.06;;;0.52;100.00
53011;BME280;42803;55.762;38.084;2022-12-24T12:51:36;98652.88;;;0.51;100.00
53011;BME280;42803;55.762;38.084;2022-12-24T12:54:34;98652.88;;;0.51;100.00
53011;BME280;42803;55.762;38.084;2022-12-24T12:57:30;98657.09;;;0.51;100.00
53011;BME280;42803;55.762;38.084;2022-12-24T13:00:19;98664.63;;;0.49;100.00
53011;BME280;42803;55.762;38.084;2022-12-24T13:03:32;98667.97;;;0.48;100.00
53011;BME280;42803;55.762;38.084;2022-12-24T13:09:58;98672.94;;;0.46;100.00
53011;BME280;42803;55.762;38.084;2022-12-24T13:13:01;98667.97;;;0.48;100.00
53011;BME280;42803;55.762;38.084;2022-12-24T13:19:32;98677.19;;;0.46;100.00
53011;BME280;42803;55.762;38.084;2022-12-24T13:22:21;98684.13;;;0.47;100.00
53011;BME280;42803;55.762;38.084;2022-12-24T13:25:20;98679.00;;;0.47;100.00
53011;BME280;42803;55.762;38.084;2022-12-24T13:31:26;98686.22;;;0.42;100.00
53011;BME280;42803;55.762;38.084;2022-12-24T13:34:31;98692.41;;;0.44;100.00
53011;BME280;42803;55.762;38.084;2022-12-24T13:37:20;98691.50;;;0.44;100.00
53011;BME280;42803;55.762;38.084;2022-12-24T13:40:15;98698.13;;;0.42;100.00
53011;BME280;42803;55.762;38.084;2022-12-24T13:43:08;98695.56;;;0.42;100.00
53011;BME280;42803;55.762;38.084;2022-12-24T13:45:56;98711.91;;;0.42;100.00
53011;BME280;42803;55.762;38.084;2022-12-24T13:48:43;98710.97;;;0.42;100.00
53011;BME280;42803;55.762;38.084;2022-12-24T13:51:32;98719.59;;;0.42;100.00
53011;BME280;42803;55.762;38.084;2022-12-24T13:54:22;98721.22;;;0.42;100.00
53011;BME280;42803;55.762;38.084;2022-12-24T13:57:28;98726.38;;;0.42;100.00
53011;BME280;42803;55.762;38.084;2022-12-24T14:00:31;98721.66;;;0.38;100.00
53011;BME280;42803;55.762;38.084;2022-12-24T14:03:26;98722.44;;;0.37;100.00
53011;BME280;42803;55.762;38.084;2022-12-24T14:06:21;98719.84;;;0.37;100.00
53011;BME280;42803;55.762;38.084;2022-12-24T14:09:11;98731.22;;;0.39;100.00
53011;BME280;42803;55.762;38.084;2022-12-24T14:12:14;98731.22;;;0.39;100.00
53011;BME280;42803;55.762;38.084;2022-12-24T14:18:24;98739.81;;;0.39;100.00
53011;BME280;42803;55.762;38.084;2022-12-24T14:21:15;98749.31;;;0.40;100.00
53011;BME280;42803;55.762;38.084;2022-12-24T14:24:04;98742.69;;;0.42;100.00
53011;BME280;42803;55.762;38.084;2022-12-24T14:26:53;98747.41;;;0.46;100.00
53011;BME280;42803;55.762;38.084;2022-12-24T14:29:47;98753.31;;;0.54;100.00
53011;BME280;42803;55.762;38.084;2022-12-24T14:32:38;98758.94;;;0.59;100.00
53011;BME280;42803;55.762;38.084;2022-12-24T14:35:28;98760.59;;;0.58;100.00
53011;BME280;42803;55.762;38.084;2022-12-24T14:38:16;98767.25;;;0.65;100.00
53011;BME280;42803;55.762;38.084;2022-12-24T14:41:14;98777.13;;;0.69;100.00
53011;BME280;42803;55.762;38.084;2022-12-24T14:44:12;98772.44;;;0.73;100.00
53011;BME280;42803;55.762;38.084;2022-12-24T14:47:11;98780.88;;;0.72;100.00
53011;BME280;42803;55.762;38.084;2022-12-24T14:50:30;98785.72;;;0.69;100.00
53011;BME280;42803;55.762;38.084;2022-12-24T14:53:34;98789.03;;;0.68;100.00
53011;BME280;42803;55.762;38.084;2022-12-24T14:56:25;98787.53;;;0.70;100.00
53011;BME280;42803;55.762;38.084;2022-12-24T14:59:15;98793.44;;;0.69;100.00
53011;BME280;42803;55.762;38.084;2022-12-24T15:02:21;98810.78;;;0.72;100.00
53011;BME280;42803;55.762;38.084;2022-12-24T15:05:12;98807.31;;;0.71;100.00